Terminal Aerodrome Forecast
Issued by NWS

Home | Current Version | Previous Version | Text Only | Print | Product List | Glossary On
Versions: 1 2 3 4 5 6 7 8 9 10 11 12 13 14 15 16 17
000
FTUS43 KGLD 192339
TAFMCK
TAF
KMCK 192339Z 2000/2024 13012G20KT P6SM SCT200
     FM200800 13010KT P6SM BKN025 BKN200
     FM201500 14016G24KT P6SM VCSH BKN025
     FM201900 13013KT P6SM -SHRA BKN025
     FM202300 11012KT P6SM -SHRA BKN010=

USA.gov is the U.S. government's official web portal to all federal, state and local government web resources and services.